Terminal Aerodrome Forecast
Issued by NWS Cleveland, OH

Home | Current Version | Previous Version | Graphics & Text | Print | Product List | Glossary On
Versions: 1 2 3 4 5 6 7 8 9 10 11 12 13 14 15 16 17 18
000
FTUS41 KCLE 280800 AAA
TAFYNG
TAF AMD
KYNG 280855Z 2809/2906 10003KT 6SM BR FEW150 BKN250
      TEMPO 2809/2813 4SM BR
     FM281700 09004KT P6SM FEW045 BKN250
     FM290000 10002KT P6SM SCT200=

USA.gov is the U.S. government's official web portal to all federal, state and local government web resources and services.